sensor_id;sensor_type;location;lat;lon;timestamp;P1;durP1;ratioP1;P2;durP2;ratioP2
23573;SDS011;11965;53.640;10.050;2023-06-04T00:00:17;6.26;;;6.26;;
23573;SDS011;11965;53.640;10.050;2023-06-04T00:02:44;6.38;;;6.38;;
23573;SDS011;11965;53.640;10.050;2023-06-04T00:05:11;6.67;;;6.67;;
23573;SDS011;11965;53.640;10.050;2023-06-04T00:07:37;7.10;;;7.08;;
23573;SDS011;11965;53.640;10.050;2023-06-04T00:10:05;7.89;;;7.89;;
23573;SDS011;11965;53.640;10.050;2023-06-04T00:12:43;8.72;;;8.72;;
23573;SDS011;11965;53.640;10.050;2023-06-04T00:15:10;9.95;;;9.95;;
23573;SDS011;11965;53.640;10.050;2023-06-04T00:17:37;9.92;;;9.92;;
23573;SDS011;11965;53.640;10.050;2023-06-04T00:20:18;10.07;;;10.04;;
23573;SDS011;11965;53.640;10.050;2023-06-04T00:22:45;10.49;;;10.47;;
23573;SDS011;11965;53.640;10.050;2023-06-04T00:25:12;9.74;;;9.70;;
23573;SDS011;11965;53.640;10.050;2023-06-04T00:27:39;10.08;;;10.05;;
23573;SDS011;11965;53.640;10.050;2023-06-04T00:30:16;10.32;;;10.16;;
23573;SDS011;11965;53.640;10.050;2023-06-04T00:32:43;9.67;;;9.67;;
23573;SDS011;11965;53.640;10.050;2023-06-04T00:35:21;9.62;;;9.62;;
23573;SDS011;11965;53.640;10.050;2023-06-04T00:37:48;9.48;;;9.48;;
23573;SDS011;11965;53.640;10.050;2023-06-04T00:40:28;9.22;;;9.22;;
23573;SDS011;11965;53.640;10.050;2023-06-04T00:42:55;9.09;;;9.09;;
23573;SDS011;11965;53.640;10.050;2023-06-04T00:45:32;9.31;;;9.31;;
23573;SDS011;11965;53.640;10.050;2023-06-04T00:47:59;9.05;;;9.05;;
23573;SDS011;11965;53.640;10.050;2023-06-04T00:50:26;9.33;;;9.33;;
23573;SDS011;11965;53.640;10.050;2023-06-04T00:53:03;8.72;;;8.71;;
23573;SDS011;11965;53.640;10.050;2023-06-04T00:55:30;9.01;;;9.01;;
23573;SDS011;11965;53.640;10.050;2023-06-04T00:57:57;8.76;;;8.76;;
23573;SDS011;11965;53.640;10.050;2023-06-04T01:00:45;9.13;;;9.10;;
23573;SDS011;11965;53.640;10.050;2023-06-04T01:03:13;8.71;;;8.70;;
23573;SDS011;11965;53.640;10.050;2023-06-04T01:05:46;8.46;;;8.46;;
23573;SDS011;11965;53.640;10.050;2023-06-04T01:08:20;9.48;;;9.48;;
23573;SDS011;11965;53.640;10.050;2023-06-04T01:10:56;11.53;;;11.53;;
23573;SDS011;11965;53.640;10.050;2023-06-04T01:13:23;10.83;;;10.83;;
23573;SDS011;11965;53.640;10.050;2023-06-04T01:15:52;10.48;;;10.46;;
23573;SDS011;11965;53.640;10.050;2023-06-04T01:18:25;10.77;;;10.77;;
23573;SDS011;11965;53.640;10.050;2023-06-04T01:21:17;9.97;;;9.97;;
23573;SDS011;11965;53.640;10.050;2023-06-04T01:23:57;10.27;;;10.27;;
23573;SDS011;11965;53.640;10.050;2023-06-04T01:26:29;9.53;;;9.53;;
23573;SDS011;11965;53.640;10.050;2023-06-04T01:28:58;9.29;;;9.29;;
23573;SDS011;11965;53.640;10.050;2023-06-04T01:31:28;8.92;;;8.92;;
23573;SDS011;11965;53.640;10.050;2023-06-04T01:33:58;8.28;;;8.28;;
23573;SDS011;11965;53.640;10.050;2023-06-04T01:36:25;7.62;;;7.60;;
23573;SDS011;11965;53.640;10.050;2023-06-04T01:38:52;8.06;;;8.06;;
23573;SDS011;11965;53.640;10.050;2023-06-04T01:41:19;8.14;;;8.14;;
23573;SDS011;11965;53.640;10.050;2023-06-04T01:43:46;8.10;;;8.10;;
23573;SDS011;11965;53.640;10.050;2023-06-04T01:46:13;8.63;;;8.63;;
23573;SDS011;11965;53.640;10.050;2023-06-04T01:48:41;8.59;;;8.59;;
23573;SDS011;11965;53.640;10.050;2023-06-04T01:51:08;8.10;;;8.10;;
23573;SDS011;11965;53.640;10.050;2023-06-04T01:53:38;8.37;;;8.37;;
23573;SDS011;11965;53.640;10.050;2023-06-04T01:56:04;8.40;;;8.40;;
23573;SDS011;11965;53.640;10.050;2023-06-04T01:58:56;7.81;;;7.81;;
23573;SDS011;11965;53.640;10.050;2023-06-04T02:01:23;7.61;;;7.61;;
23573;SDS011;11965;53.640;10.050;2023-06-04T02:06:43;7.78;;;7.78;;
23573;SDS011;11965;53.640;10.050;2023-06-04T02:09:13;7.78;;;7.78;;
23573;SDS011;11965;53.640;10.050;2023-06-04T02:11:43;7.45;;;7.44;;
23573;SDS011;11965;53.640;10.050;2023-06-04T02:14:20;7.87;;;7.87;;
23573;SDS011;11965;53.640;10.050;2023-06-04T02:16:49;7.51;;;7.51;;
23573;SDS011;11965;53.640;10.050;2023-06-04T02:19:49;7.66;;;7.66;;
23573;SDS011;11965;53.640;10.050;2023-06-04T02:22:16;7.13;;;7.10;;
23573;SDS011;11965;53.640;10.050;2023-06-04T02:24:52;6.95;;;6.94;;
23573;SDS011;11965;53.640;10.050;2023-06-04T02:27:31;6.81;;;6.81;;
23573;SDS011;11965;53.640;10.050;2023-06-04T02:29:59;6.38;;;6.38;;
23573;SDS011;11965;53.640;10.050;2023-06-04T02:32:26;6.04;;;6.04;;
23573;SDS011;11965;53.640;10.050;2023-06-04T02:34:55;6.17;;;6.17;;
23573;SDS011;11965;53.640;10.050;2023-06-04T02:37:40;6.11;;;6.11;;
23573;SDS011;11965;53.640;10.050;2023-06-04T02:40:08;6.06;;;6.06;;
23573;SDS011;11965;53.640;10.050;2023-06-04T02:42:35;6.46;;;6.46;;
23573;SDS011;11965;53.640;10.050;2023-06-04T02:45:02;5.86;;;5.86;;
23573;SDS011;11965;53.640;10.050;2023-06-04T02:47:42;6.21;;;6.21;;
23573;SDS011;11965;53.640;10.050;2023-06-04T02:50:10;6.52;;;6.52;;
23573;SDS011;11965;53.640;10.050;2023-06-04T02:52:47;6.23;;;6.23;;
23573;SDS011;11965;53.640;10.050;2023-06-04T02:55:15;6.28;;;6.28;;
23573;SDS011;11965;53.640;10.050;2023-06-04T02:57:42;6.00;;;6.00;;
23573;SDS011;11965;53.640;10.050;2023-06-04T03:00:09;6.46;;;6.46;;
23573;SDS011;11965;53.640;10.050;2023-06-04T03:02:45;6.02;;;6.02;;
23573;SDS011;11965;53.640;10.050;2023-06-04T03:05:25;5.79;;;5.79;;
23573;SDS011;11965;53.640;10.050;2023-06-04T03:08:01;5.67;;;5.67;;
23573;SDS011;11965;53.640;10.050;2023-06-04T03:10:28;5.94;;;5.94;;
23573;SDS011;11965;53.640;10.050;2023-06-04T03:13:05;5.80;;;5.80;;
23573;SDS011;11965;53.640;10.050;2023-06-04T03:15:32;5.67;;;5.67;;
23573;SDS011;11965;53.640;10.050;2023-06-04T03:18:09;5.74;;;5.74;;
23573;SDS011;11965;53.640;10.050;2023-06-04T03:20:47;5.66;;;5.66;;
23573;SDS011;11965;53.640;10.050;2023-06-04T03:23:14;5.87;;;5.87;;
23573;SDS011;11965;53.640;10.050;2023-06-04T03:25:41;5.49;;;5.49;;
23573;SDS011;11965;53.640;10.050;2023-06-04T03:28:11;5.85;;;5.84;;
23573;SDS011;11965;53.640;10.050;2023-06-04T03:30:56;5.64;;;5.64;;
23573;SDS011;11965;53.640;10.050;2023-06-04T03:33:28;5.44;;;5.44;;
23573;SDS011;11965;53.640;10.050;2023-06-04T03:36:08;5.69;;;5.69;;
23573;SDS011;11965;53.640;10.050;2023-06-04T03:38:45;5.56;;;5.56;;
23573;SDS011;11965;53.640;10.050;2023-06-04T03:41:12;5.40;;;5.40;;
23573;SDS011;11965;53.640;10.050;2023-06-04T03:43:40;5.39;;;5.39;;
23573;SDS011;11965;53.640;10.050;2023-06-04T03:46:15;5.87;;;5.87;;
23573;SDS011;11965;53.640;10.050;2023-06-04T03:48:42;5.53;;;5.53;;
23573;SDS011;11965;53.640;10.050;2023-06-04T03:51:34;5.48;;;5.48;;
23573;SDS011;11965;53.640;10.050;2023-06-04T03:54:01;5.87;;;5.87;;
23573;SDS011;11965;53.640;10.050;2023-06-04T03:56:30;6.43;;;6.43;;
23573;SDS011;11965;53.640;10.050;2023-06-04T03:59:06;6.42;;;6.42;;
23573;SDS011;11965;53.640;10.050;2023-06-04T04:01:33;6.20;;;6.20;;
23573;SDS011;11965;53.640;10.050;2023-06-04T04:04:23;6.19;;;6.19;;
23573;SDS011;11965;53.640;10.050;2023-06-04T04:07:04;5.99;;;5.99;;
23573;SDS011;11965;53.640;10.050;2023-06-04T04:09:41;4.93;;;4.93;;
23573;SDS011;11965;53.640;10.050;2023-06-04T04:12:08;5.72;;;5.72;;
23573;SDS011;11965;53.640;10.050;2023-06-04T04:14:35;5.51;;;5.51;;
23573;SDS011;11965;53.640;10.050;2023-06-04T04:17:03;5.41;;;5.41;;
23573;SDS011;11965;53.640;10.050;2023-06-04T04:19:30;5.28;;;5.28;;
23573;SDS011;11965;53.640;10.050;2023-06-04T04:21:59;4.71;;;4.71;;
23573;SDS011;11965;53.640;10.050;2023-06-04T04:24:28;4.69;;;4.69;;
23573;SDS011;11965;53.640;10.050;2023-06-04T04:26:59;4.74;;;4.74;;
23573;SDS011;11965;53.640;10.050;2023-06-04T04:29:29;4.46;;;4.46;;
23573;SDS011;11965;53.640;10.050;2023-06-04T04:32:06;4.22;;;4.22;;
23573;SDS011;11965;53.640;10.050;2023-06-04T04:34:37;4.38;;;4.38;;
23573;SDS011;11965;53.640;10.050;2023-06-04T04:37:05;4.30;;;4.30;;
23573;SDS011;11965;53.640;10.050;2023-06-04T04:39:35;4.38;;;4.38;;
23573;SDS011;11965;53.640;10.050;2023-06-04T04:42:18;4.37;;;4.37;;
23573;SDS011;11965;53.640;10.050;2023-06-04T04:44:57;4.39;;;4.39;;
23573;SDS011;11965;53.640;10.050;2023-06-04T04:47:36;4.17;;;4.17;;
23573;SDS011;11965;53.640;10.050;2023-06-04T04:50:15;4.20;;;4.20;;
23573;SDS011;11965;53.640;10.050;2023-06-04T04:52:43;4.16;;;4.16;;
23573;SDS011;11965;53.640;10.050;2023-06-04T04:55:20;4.10;;;4.10;;
23573;SDS011;11965;53.640;10.050;2023-06-04T04:57:55;4.30;;;4.30;;
23573;SDS011;11965;53.640;10.050;2023-06-04T05:00:23;4.14;;;4.14;;
23573;SDS011;11965;53.640;10.050;2023-06-04T05:03:02;4.44;;;4.44;;
23573;SDS011;11965;53.640;10.050;2023-06-04T05:05:41;4.36;;;4.36;;
23573;SDS011;11965;53.640;10.050;2023-06-04T05:08:09;4.07;;;4.07;;
23573;SDS011;11965;53.640;10.050;2023-06-04T05:10:44;3.96;;;3.96;;
23573;SDS011;11965;53.640;10.050;2023-06-04T05:13:11;4.05;;;4.05;;
23573;SDS011;11965;53.640;10.050;2023-06-04T05:15:47;4.15;;;4.15;;
23573;SDS011;11965;53.640;10.050;2023-06-04T05:18:18;3.78;;;3.78;;
23573;SDS011;11965;53.640;10.050;2023-06-04T05:20:48;3.64;;;3.64;;
23573;SDS011;11965;53.640;10.050;2023-06-04T05:23:15;3.70;;;3.70;;
23573;SDS011;11965;53.640;10.050;2023-06-04T05:25:46;3.96;;;3.96;;
23573;SDS011;11965;53.640;10.050;2023-06-04T05:28:27;4.02;;;4.02;;
23573;SDS011;11965;53.640;10.050;2023-06-04T05:30:55;3.75;;;3.74;;
23573;SDS011;11965;53.640;10.050;2023-06-04T05:33:25;3.94;;;3.92;;
23573;SDS011;11965;53.640;10.050;2023-06-04T05:36:00;3.73;;;3.73;;
23573;SDS011;11965;53.640;10.050;2023-06-04T05:38:38;3.69;;;3.67;;
23573;SDS011;11965;53.640;10.050;2023-06-04T05:41:11;3.85;;;3.80;;
23573;SDS011;11965;53.640;10.050;2023-06-04T05:43:39;3.66;;;3.61;;
23573;SDS011;11965;53.640;10.050;2023-06-04T05:46:07;3.67;;;3.63;;
23573;SDS011;11965;53.640;10.050;2023-06-04T05:48:39;3.81;;;3.77;;
23573;SDS011;11965;53.640;10.050;2023-06-04T05:51:06;3.59;;;3.54;;
23573;SDS011;11965;53.640;10.050;2023-06-04T05:53:33;3.66;;;3.62;;
23573;SDS011;11965;53.640;10.050;2023-06-04T05:56:11;3.40;;;3.38;;
23573;SDS011;11965;53.640;10.050;2023-06-04T05:58:51;3.46;;;3.44;;
23573;SDS011;11965;53.640;10.050;2023-06-04T06:01:25;3.44;;;3.40;;
23573;SDS011;11965;53.640;10.050;2023-06-04T06:03:56;3.03;;;3.01;;
23573;SDS011;11965;53.640;10.050;2023-06-04T06:06:25;3.29;;;3.29;;
23573;SDS011;11965;53.640;10.050;2023-06-04T06:09:03;3.16;;;3.16;;
23573;SDS011;11965;53.640;10.050;2023-06-04T06:11:32;3.24;;;3.21;;
23573;SDS011;11965;53.640;10.050;2023-06-04T06:13:59;3.16;;;3.10;;
23573;SDS011;11965;53.640;10.050;2023-06-04T06:16:26;3.13;;;3.08;;
23573;SDS011;11965;53.640;10.050;2023-06-04T06:18:53;3.34;;;3.31;;
23573;SDS011;11965;53.640;10.050;2023-06-04T06:21:20;3.24;;;3.21;;
23573;SDS011;11965;53.640;10.050;2023-06-04T06:23:47;3.36;;;3.29;;
23573;SDS011;11965;53.640;10.050;2023-06-04T06:26:14;3.32;;;3.26;;
23573;SDS011;11965;53.640;10.050;2023-06-04T06:28:58;3.31;;;3.30;;
23573;SDS011;11965;53.640;10.050;2023-06-04T06:31:37;3.25;;;3.25;;
23573;SDS011;11965;53.640;10.050;2023-06-04T06:34:04;2.97;;;2.97;;
23573;SDS011;11965;53.640;10.050;2023-06-04T06:36:31;2.72;;;2.72;;
23573;SDS011;11965;53.640;10.050;2023-06-04T06:38:59;3.21;;;3.18;;
23573;SDS011;11965;53.640;10.050;2023-06-04T06:41:26;2.97;;;2.92;;
23573;SDS011;11965;53.640;10.050;2023-06-04T06:43:53;2.82;;;2.78;;
23573;SDS011;11965;53.640;10.050;2023-06-04T06:46:21;3.15;;;3.10;;
23573;SDS011;11965;53.640;10.050;2023-06-04T06:49:02;2.59;;;2.55;;
23573;SDS011;11965;53.640;10.050;2023-06-04T06:51:31;3.11;;;3.07;;
23573;SDS011;11965;53.640;10.050;2023-06-04T06:53:58;3.20;;;3.16;;
23573;SDS011;11965;53.640;10.050;2023-06-04T06:56:31;3.14;;;3.07;;
23573;SDS011;11965;53.640;10.050;2023-06-04T06:58:58;3.03;;;2.99;;
23573;SDS011;11965;53.640;10.050;2023-06-04T07:01:33;3.31;;;3.27;;
23573;SDS011;11965;53.640;10.050;2023-06-04T07:04:01;2.96;;;2.92;;
23573;SDS011;11965;53.640;10.050;2023-06-04T07:06:28;3.29;;;3.24;;
23573;SDS011;11965;53.640;10.050;2023-06-04T07:08:58;3.02;;;2.96;;
23573;SDS011;11965;53.640;10.050;2023-06-04T07:11:37;3.13;;;3.07;;
23573;SDS011;11965;53.640;10.050;2023-06-04T07:14:04;3.12;;;3.08;;
23573;SDS011;11965;53.640;10.050;2023-06-04T07:16:35;2.94;;;2.90;;
23573;SDS011;11965;53.640;10.050;2023-06-04T07:19:02;2.77;;;2.76;;
23573;SDS011;11965;53.640;10.050;2023-06-04T07:21:32;3.04;;;3.02;;
23573;SDS011;11965;53.640;10.050;2023-06-04T07:23:59;2.99;;;2.96;;
23573;SDS011;11965;53.640;10.050;2023-06-04T07:26:32;3.08;;;3.04;;
23573;SDS011;11965;53.640;10.050;2023-06-04T07:29:03;2.83;;;2.79;;
23573;SDS011;11965;53.640;10.050;2023-06-04T07:31:43;3.00;;;2.95;;
23573;SDS011;11965;53.640;10.050;2023-06-04T07:34:10;2.99;;;2.95;;
23573;SDS011;11965;53.640;10.050;2023-06-04T07:36:37;3.00;;;2.96;;
23573;SDS011;11965;53.640;10.050;2023-06-04T07:39:04;2.80;;;2.75;;
23573;SDS011;11965;53.640;10.050;2023-06-04T07:41:34;2.81;;;2.76;;
23573;SDS011;11965;53.640;10.050;2023-06-04T07:44:00;2.95;;;2.91;;
23573;SDS011;11965;53.640;10.050;2023-06-04T07:46:33;2.66;;;2.64;;
23573;SDS011;11965;53.640;10.050;2023-06-04T07:49:02;2.75;;;2.74;;
23573;SDS011;11965;53.640;10.050;2023-06-04T07:51:30;2.46;;;2.45;;
23573;SDS011;11965;53.640;10.050;2023-06-04T07:53:57;2.66;;;2.64;;
23573;SDS011;11965;53.640;10.050;2023-06-04T07:56:24;2.70;;;2.67;;
23573;SDS011;11965;53.640;10.050;2023-06-04T07:58:50;2.87;;;2.83;;
23573;SDS011;11965;53.640;10.050;2023-06-04T08:01:17;2.78;;;2.74;;
23573;SDS011;11965;53.640;10.050;2023-06-04T08:03:45;2.62;;;2.60;;
23573;SDS011;11965;53.640;10.050;2023-06-04T08:06:13;2.61;;;2.60;;
23573;SDS011;11965;53.640;10.050;2023-06-04T08:08:41;2.50;;;2.48;;
23573;SDS011;11965;53.640;10.050;2023-06-04T08:11:19;2.54;;;2.52;;
23573;SDS011;11965;53.640;10.050;2023-06-04T08:13:48;2.38;;;2.35;;
23573;SDS011;11965;53.640;10.050;2023-06-04T08:16:15;2.51;;;2.48;;
23573;SDS011;11965;53.640;10.050;2023-06-04T08:18:42;2.50;;;2.47;;
23573;SDS011;11965;53.640;10.050;2023-06-04T08:21:09;2.57;;;2.54;;
23573;SDS011;11965;53.640;10.050;2023-06-04T08:23:50;2.31;;;2.27;;
23573;SDS011;11965;53.640;10.050;2023-06-04T08:26:17;2.31;;;2.28;;
23573;SDS011;11965;53.640;10.050;2023-06-04T08:28:44;2.60;;;2.53;;
23573;SDS011;11965;53.640;10.050;2023-06-04T08:31:13;2.14;;;2.11;;
23573;SDS011;11965;53.640;10.050;2023-06-04T08:33:40;2.49;;;2.45;;
23573;SDS011;11965;53.640;10.050;2023-06-04T08:36:31;2.43;;;2.42;;
23573;SDS011;11965;53.640;10.050;2023-06-04T08:41:48;2.31;;;2.31;;
23573;SDS011;11965;53.640;10.050;2023-06-04T08:44:18;2.24;;;2.24;;
23573;SDS011;11965;53.640;10.050;2023-06-04T08:46:44;2.01;;;2.01;;
23573;SDS011;11965;53.640;10.050;2023-06-04T08:49:40;2.51;;;2.49;;
23573;SDS011;11965;53.640;10.050;2023-06-04T08:52:11;1.89;;;1.87;;
23573;SDS011;11965;53.640;10.050;2023-06-04T08:54:39;2.43;;;2.42;;
23573;SDS011;11965;53.640;10.050;2023-06-04T08:57:06;2.14;;;2.12;;
23573;SDS011;11965;53.640;10.050;2023-06-04T08:59:35;2.37;;;2.36;;
23573;SDS011;11965;53.640;10.050;2023-06-04T09:02:12;2.44;;;2.41;;
23573;SDS011;11965;53.640;10.050;2023-06-04T09:04:50;2.16;;;2.14;;
23573;SDS011;11965;53.640;10.050;2023-06-04T09:07:17;2.13;;;2.10;;
23573;SDS011;11965;53.640;10.050;2023-06-04T09:09:45;2.17;;;2.15;;
23573;SDS011;11965;53.640;10.050;2023-06-04T09:12:16;2.01;;;1.98;;
23573;SDS011;11965;53.640;10.050;2023-06-04T09:14:49;2.19;;;2.17;;
23573;SDS011;11965;53.640;10.050;2023-06-04T09:17:30;1.81;;;1.81;;
23573;SDS011;11965;53.640;10.050;2023-06-04T09:19:57;1.93;;;1.93;;
23573;SDS011;11965;53.640;10.050;2023-06-04T09:22:31;2.05;;;2.05;;
23573;SDS011;11965;53.640;10.050;2023-06-04T09:25:03;1.87;;;1.86;;
23573;SDS011;11965;53.640;10.050;2023-06-04T09:27:39;1.83;;;1.81;;
23573;SDS011;11965;53.640;10.050;2023-06-04T09:30:07;2.00;;;1.97;;
23573;SDS011;11965;53.640;10.050;2023-06-04T09:32:35;1.68;;;1.66;;
23573;SDS011;11965;53.640;10.050;2023-06-04T09:35:09;1.81;;;1.79;;
23573;SDS011;11965;53.640;10.050;2023-06-04T09:37:51;1.93;;;1.92;;
23573;SDS011;11965;53.640;10.050;2023-06-04T09:40:22;1.95;;;1.94;;
23573;SDS011;11965;53.640;10.050;2023-06-04T09:42:49;1.95;;;1.94;;
23573;SDS011;11965;53.640;10.050;2023-06-04T09:45:28;1.80;;;1.80;;
23573;SDS011;11965;53.640;10.050;2023-06-04T09:47:57;1.99;;;1.99;;
23573;SDS011;11965;53.640;10.050;2023-06-04T09:50:25;1.98;;;1.97;;
23573;SDS011;11965;53.640;10.050;2023-06-04T09:52:59;1.76;;;1.75;;
23573;SDS011;11965;53.640;10.050;2023-06-04T09:55:28;2.18;;;2.14;;
23573;SDS011;11965;53.640;10.050;2023-06-04T09:57:56;1.94;;;1.91;;
23573;SDS011;11965;53.640;10.050;2023-06-04T10:00:26;1.89;;;1.86;;
23573;SDS011;11965;53.640;10.050;2023-06-04T10:02:55;1.99;;;1.94;;
23573;SDS011;11965;53.640;10.050;2023-06-04T10:05:23;1.89;;;1.85;;
23573;SDS011;11965;53.640;10.050;2023-06-04T10:07:51;1.80;;;1.76;;
23573;SDS011;11965;53.640;10.050;2023-06-04T10:10:23;1.90;;;1.87;;
23573;SDS011;11965;53.640;10.050;2023-06-04T10:12:54;1.95;;;1.92;;
23573;SDS011;11965;53.640;10.050;2023-06-04T10:15:27;2.14;;;2.11;;
23573;SDS011;11965;53.640;10.050;2023-06-04T10:17:57;2.05;;;2.02;;
23573;SDS011;11965;53.640;10.050;2023-06-04T10:20:25;1.92;;;1.91;;
23573;SDS011;11965;53.640;10.050;2023-06-04T10:22:58;2.00;;;2.00;;
23573;SDS011;11965;53.640;10.050;2023-06-04T10:25:27;1.71;;;1.71;;
23573;SDS011;11965;53.640;10.050;2023-06-04T10:27:56;1.75;;;1.74;;
23573;SDS011;11965;53.640;10.050;2023-06-04T10:30:24;1.83;;;1.83;;
23573;SDS011;11965;53.640;10.050;2023-06-04T10:32:52;1.74;;;1.74;;
23573;SDS011;11965;53.640;10.050;2023-06-04T10:35:32;1.69;;;1.69;;
23573;SDS011;11965;53.640;10.050;2023-06-04T10:38:12;1.70;;;1.70;;
23573;SDS011;11965;53.640;10.050;2023-06-04T10:40:50;1.87;;;1.87;;
23573;SDS011;11965;53.640;10.050;2023-06-04T10:43:19;1.94;;;1.94;;
23573;SDS011;11965;53.640;10.050;2023-06-04T10:45:47;1.83;;;1.83;;
23573;SDS011;11965;53.640;10.050;2023-06-04T10:48:14;1.89;;;1.89;;
23573;SDS011;11965;53.640;10.050;2023-06-04T10:50:50;1.76;;;1.75;;
23573;SDS011;11965;53.640;10.050;2023-06-04T10:53:36;1.97;;;1.96;;
23573;SDS011;11965;53.640;10.050;2023-06-04T10:56:24;1.82;;;1.81;;
23573;SDS011;11965;53.640;10.050;2023-06-04T10:58:53;1.72;;;1.71;;
23573;SDS011;11965;53.640;10.050;2023-06-04T11:01:23;1.73;;;1.73;;
23573;SDS011;11965;53.640;10.050;2023-06-04T11:03:51;2.11;;;2.11;;
23573;SDS011;11965;53.640;10.050;2023-06-04T11:06:21;1.84;;;1.84;;
23573;SDS011;11965;53.640;10.050;2023-06-04T11:09:01;1.88;;;1.88;;
23573;SDS011;11965;53.640;10.050;2023-06-04T11:11:36;1.73;;;1.73;;
23573;SDS011;11965;53.640;10.050;2023-06-04T11:14:08;1.72;;;1.72;;
23573;SDS011;11965;53.640;10.050;2023-06-04T11:16:39;1.82;;;1.82;;
23573;SDS011;11965;53.640;10.050;2023-06-04T11:19:09;1.75;;;1.75;;
23573;SDS011;11965;53.640;10.050;2023-06-04T11:21:36;1.60;;;1.60;;
23573;SDS011;11965;53.640;10.050;2023-06-04T11:24:04;2.07;;;2.07;;
23573;SDS011;11965;53.640;10.050;2023-06-04T11:26:31;1.80;;;1.80;;
23573;SDS011;11965;53.640;10.050;2023-06-04T11:28:59;1.87;;;1.87;;
23573;SDS011;11965;53.640;10.050;2023-06-04T11:31:28;1.94;;;1.94;;
23573;SDS011;11965;53.640;10.050;2023-06-04T11:33:55;1.96;;;1.96;;
23573;SDS011;11965;53.640;10.050;2023-06-04T11:36:31;1.91;;;1.91;;
23573;SDS011;11965;53.640;10.050;2023-06-04T11:38:58;1.87;;;1.87;;
23573;SDS011;11965;53.640;10.050;2023-06-04T11:41:40;1.84;;;1.84;;
23573;SDS011;11965;53.640;10.050;2023-06-04T11:44:08;2.08;;;2.08;;
23573;SDS011;11965;53.640;10.050;2023-06-04T11:46:41;1.91;;;1.91;;
23573;SDS011;11965;53.640;10.050;2023-06-04T11:49:11;2.23;;;2.21;;
23573;SDS011;11965;53.640;10.050;2023-06-04T11:51:52;1.78;;;1.77;;
23573;SDS011;11965;53.640;10.050;2023-06-04T11:54:20;1.82;;;1.82;;
23573;SDS011;11965;53.640;10.050;2023-06-04T11:57:11;1.98;;;1.96;;
23573;SDS011;11965;53.640;10.050;2023-06-04T12:02:27;1.78;;;1.78;;
23573;SDS011;11965;53.640;10.050;2023-06-04T12:04:54;1.79;;;1.78;;
23573;SDS011;11965;53.640;10.050;2023-06-04T12:07:24;1.79;;;1.79;;
23573;SDS011;11965;53.640;10.050;2023-06-04T12:10:05;2.02;;;2.02;;
23573;SDS011;11965;53.640;10.050;2023-06-04T12:12:41;2.02;;;2.02;;
23573;SDS011;11965;53.640;10.050;2023-06-04T12:15:09;2.02;;;2.02;;
23573;SDS011;11965;53.640;10.050;2023-06-04T12:17:48;1.71;;;1.71;;
23573;SDS011;11965;53.640;10.050;2023-06-04T12:20:35;1.68;;;1.68;;
23573;SDS011;11965;53.640;10.050;2023-06-04T12:23:03;1.91;;;1.91;;
23573;SDS011;11965;53.640;10.050;2023-06-04T12:25:32;1.86;;;1.86;;
23573;SDS011;11965;53.640;10.050;2023-06-04T12:28:02;1.85;;;1.85;;
23573;SDS011;11965;53.640;10.050;2023-06-04T12:30:35;1.88;;;1.88;;
23573;SDS011;11965;53.640;10.050;2023-06-04T12:33:13;1.96;;;1.96;;
23573;SDS011;11965;53.640;10.050;2023-06-04T12:35:40;1.92;;;1.92;;
23573;SDS011;11965;53.640;10.050;2023-06-04T12:38:06;1.82;;;1.82;;
23573;SDS011;11965;53.640;10.050;2023-06-04T12:40:34;2.66;;;2.66;;
23573;SDS011;11965;53.640;10.050;2023-06-04T12:43:01;2.12;;;2.11;;
23573;SDS011;11965;53.640;10.050;2023-06-04T12:45:28;2.10;;;2.10;;
23573;SDS011;11965;53.640;10.050;2023-06-04T12:47:55;2.03;;;2.03;;
23573;SDS011;11965;53.640;10.050;2023-06-04T12:50:23;2.13;;;2.13;;
23573;SDS011;11965;53.640;10.050;2023-06-04T12:52:53;1.89;;;1.89;;
23573;SDS011;11965;53.640;10.050;2023-06-04T12:55:20;1.95;;;1.95;;
23573;SDS011;11965;53.640;10.050;2023-06-04T12:57:59;1.79;;;1.79;;
23573;SDS011;11965;53.640;10.050;2023-06-04T13:00:26;1.84;;;1.84;;
23573;SDS011;11965;53.640;10.050;2023-06-04T13:03:05;1.68;;;1.67;;
23573;SDS011;11965;53.640;10.050;2023-06-04T13:05:36;1.97;;;1.96;;
23573;SDS011;11965;53.640;10.050;2023-06-04T13:08:09;1.93;;;1.92;;
23573;SDS011;11965;53.640;10.050;2023-06-04T13:10:38;1.76;;;1.76;;
23573;SDS011;11965;53.640;10.050;2023-06-04T13:13:17;2.03;;;2.03;;
23573;SDS011;11965;53.640;10.050;2023-06-04T13:15:54;1.87;;;1.85;;
23573;SDS011;11965;53.640;10.050;2023-06-04T13:18:33;2.18;;;2.16;;
23573;SDS011;11965;53.640;10.050;2023-06-04T13:21:11;2.02;;;2.01;;
23573;SDS011;11965;53.640;10.050;2023-06-04T13:23:50;2.05;;;2.05;;
23573;SDS011;11965;53.640;10.050;2023-06-04T13:26:17;1.94;;;1.94;;
23573;SDS011;11965;53.640;10.050;2023-06-04T13:28:47;1.71;;;1.70;;
23573;SDS011;11965;53.640;10.050;2023-06-04T13:31:14;1.68;;;1.67;;
23573;SDS011;11965;53.640;10.050;2023-06-04T13:33:42;1.84;;;1.84;;
23573;SDS011;11965;53.640;10.050;2023-06-04T13:36:08;1.80;;;1.80;;
23573;SDS011;11965;53.640;10.050;2023-06-04T13:38:49;1.87;;;1.87;;
23573;SDS011;11965;53.640;10.050;2023-06-04T13:41:17;1.98;;;1.98;;
23573;SDS011;11965;53.640;10.050;2023-06-04T13:43:46;1.84;;;1.84;;
23573;SDS011;11965;53.640;10.050;2023-06-04T13:46:13;1.97;;;1.97;;
23573;SDS011;11965;53.640;10.050;2023-06-04T13:48:49;1.75;;;1.75;;
23573;SDS011;11965;53.640;10.050;2023-06-04T13:51:17;1.83;;;1.83;;
23573;SDS011;11965;53.640;10.050;2023-06-04T13:53:53;2.11;;;2.11;;
23573;SDS011;11965;53.640;10.050;2023-06-04T13:56:20;1.86;;;1.85;;
23573;SDS011;11965;53.640;10.050;2023-06-04T13:58:47;1.93;;;1.93;;
23573;SDS011;11965;53.640;10.050;2023-06-04T14:01:37;2.03;;;2.03;;
23573;SDS011;11965;53.640;10.050;2023-06-04T14:04:16;2.06;;;2.06;;
23573;SDS011;11965;53.640;10.050;2023-06-04T14:06:54;2.16;;;2.16;;
23573;SDS011;11965;53.640;10.050;2023-06-04T14:09:21;1.97;;;1.97;;
23573;SDS011;11965;53.640;10.050;2023-06-04T14:11:48;1.99;;;1.99;;
23573;SDS011;11965;53.640;10.050;2023-06-04T14:14:26;2.02;;;2.02;;
23573;SDS011;11965;53.640;10.050;2023-06-04T14:17:03;1.89;;;1.89;;
23573;SDS011;11965;53.640;10.050;2023-06-04T14:19:40;1.88;;;1.88;;
23573;SDS011;11965;53.640;10.050;2023-06-04T14:22:19;2.32;;;2.32;;
23573;SDS011;11965;53.640;10.050;2023-06-04T14:24:46;2.13;;;2.13;;
23573;SDS011;11965;53.640;10.050;2023-06-04T14:27:26;2.11;;;2.11;;
23573;SDS011;11965;53.640;10.050;2023-06-04T14:29:53;1.90;;;1.90;;
23573;SDS011;11965;53.640;10.050;2023-06-04T14:32:27;2.44;;;2.44;;
23573;SDS011;11965;53.640;10.050;2023-06-04T14:35:03;2.26;;;2.26;;
23573;SDS011;11965;53.640;10.050;2023-06-04T14:37:40;2.12;;;2.12;;
23573;SDS011;11965;53.640;10.050;2023-06-04T14:40:16;2.22;;;2.22;;
23573;SDS011;11965;53.640;10.050;2023-06-04T14:42:45;1.91;;;1.91;;
23573;SDS011;11965;53.640;10.050;2023-06-04T14:47:49;2.04;;;2.04;;
23573;SDS011;11965;53.640;10.050;2023-06-04T14:53:20;2.13;;;2.13;;
23573;SDS011;11965;53.640;10.050;2023-06-04T14:55:46;2.40;;;2.40;;
23573;SDS011;11965;53.640;10.050;2023-06-04T14:58:13;2.03;;;2.03;;
23573;SDS011;11965;53.640;10.050;2023-06-04T15:00:41;2.11;;;2.11;;
23573;SDS011;11965;53.640;10.050;2023-06-04T15:03:08;2.24;;;2.24;;
23573;SDS011;11965;53.640;10.050;2023-06-04T15:05:46;2.26;;;2.25;;
23573;SDS011;11965;53.640;10.050;2023-06-04T15:08:24;2.38;;;2.38;;
23573;SDS011;11965;53.640;10.050;2023-06-04T15:10:50;2.15;;;2.15;;
23573;SDS011;11965;53.640;10.050;2023-06-04T15:13:17;2.31;;;2.31;;